Time;durP1;ratioP1;P1;durP2;ratioP2;P2;SDS_P1;SDS_P2;PMS_P1;PMS_P2;Temp;Humidity;BMP_temperature;BMP_pressure;BME280_temperature;BME280_humidity;BME280_pressure;Samples;Min_cycle;Max_cycle;Signal;HPM_P1;HPM_P2
2021/10/04 00:00:14;;;;;;;1.38;1.23;;;;;;;;;;5012196;28;20036;-55
2021/10/04 00:02:39;;;;;;;2.17;1.20;;;;;;;;;;5007575;28;20030;-54
2021/10/04 00:05:06;;;;;;;2.28;1.35;;;;;;;;;;5018789;28;20808;-54
2021/10/04 00:07:32;;;;;;;3.22;1.40;;;;;;;;;;5022461;28;20021;-53
2021/10/04 00:09:57;;;;;;;4.18;1.45;;;;;;;;;;5016830;28;20030;-54
2021/10/04 00:12:22;;;;;;;2.78;1.48;;;;;;;;;;5010972;28;20050;-54
2021/10/04 00:14:47;;;;;;;2.50;1.50;;;;;;;;;;5011062;28;20083;-53
2021/10/04 00:17:13;;;;;;;3.17;1.48;;;;;;;;;;5014370;28;20476;-53
2021/10/04 00:19:38;;;;;;;1.30;1.20;;;;;;;;;;5024228;28;20488;-54
2021/10/04 00:22:03;;;;;;;2.97;1.50;;;;;;;;;;5015494;28;20503;-54
2021/10/04 00:24:28;;;;;;;1.23;1.13;;;;;;;;;;5014258;28;20083;-54
2021/10/04 00:26:54;;;;;;;2.35;1.40;;;;;;;;;;5007163;28;20037;-55
2021/10/04 00:29:19;;;;;;;2.28;1.40;;;;;;;;;;5016010;28;20087;-53
2021/10/04 00:31:45;;;;;;;3.15;1.50;;;;;;;;;;5033302;28;20064;-56
2021/10/04 00:34:10;;;;;;;3.92;1.35;;;;;;;;;;5013928;28;20894;-54
2021/10/04 00:36:35;;;;;;;2.72;1.33;;;;;;;;;;5012089;28;20123;-57
2021/10/04 00:39:01;;;;;;;3.28;1.65;;;;;;;;;;5010424;28;20109;-54
2021/10/04 00:41:26;;;;;;;3.00;1.33;;;;;;;;;;5028637;28;20124;-55
2021/10/04 00:43:52;;;;;;;2.33;1.38;;;;;;;;;;5014817;28;20025;-54
2021/10/04 00:46:17;;;;;;;1.40;1.30;;;;;;;;;;5013533;28;20046;-55
2021/10/04 00:48:42;;;;;;;2.08;1.35;;;;;;;;;;5011295;28;20125;-54
2021/10/04 00:51:07;;;;;;;3.25;1.25;;;;;;;;;;5014543;28;20132;-54
2021/10/04 00:53:33;;;;;;;1.55;1.23;;;;;;;;;;5010106;28;20560;-54
2021/10/04 00:55:58;;;;;;;6.93;1.40;;;;;;;;;;5013472;28;20050;-54
2021/10/04 00:58:23;;;;;;;3.13;1.30;;;;;;;;;;5014525;28;20025;-53
2021/10/04 01:00:48;;;;;;;1.95;1.35;;;;;;;;;;5015560;28;20030;-52
2021/10/04 01:03:16;;;;;;;6.00;1.50;;;;;;;;;;5012909;28;20029;-52
2021/10/04 01:05:41;;;;;;;1.40;1.30;;;;;;;;;;5023709;28;20457;-54
2021/10/04 01:08:09;;;;;;;2.72;1.50;;;;;;;;;;5035285;28;20372;-54
2021/10/04 01:10:34;;;;;;;3.55;1.52;;;;;;;;;;5021766;28;20038;-54
2021/10/04 01:13:00;;;;;;;11.90;1.92;;;;;;;;;;5020714;28;20083;-54
2021/10/04 01:15:25;;;;;;;4.28;1.63;;;;;;;;;;5009541;28;20140;-55
2021/10/04 01:17:50;;;;;;;2.42;1.38;;;;;;;;;;5013225;28;20376;-54
2021/10/04 01:20:16;;;;;;;1.98;1.40;;;;;;;;;;5016608;28;20479;-54
2021/10/04 01:22:41;;;;;;;2.10;1.50;;;;;;;;;;5020980;28;20030;-55
2021/10/04 01:25:07;;;;;;;3.08;1.52;;;;;;;;;;5016782;28;20053;-54
2021/10/04 01:27:32;;;;;;;3.92;1.50;;;;;;;;;;5024585;28;20515;-54
2021/10/04 01:29:57;;;;;;;4.18;1.60;;;;;;;;;;5013816;28;20295;-55
2021/10/04 01:32:22;;;;;;;2.85;1.52;;;;;;;;;;5014668;28;20041;-54
2021/10/04 01:34:48;;;;;;;1.92;1.50;;;;;;;;;;5019912;28;20044;-53
2021/10/04 01:37:13;;;;;;;4.82;1.52;;;;;;;;;;5011918;28;20038;-54
2021/10/04 01:39:38;;;;;;;2.10;1.45;;;;;;;;;;5019434;28;20025;-53
2021/10/04 01:42:04;;;;;;;1.55;1.38;;;;;;;;;;5009080;28;20026;-52
2021/10/04 01:44:29;;;;;;;3.08;1.60;;;;;;;;;;5020232;28;20263;-55
2021/10/04 01:46:54;;;;;;;5.93;1.90;;;;;;;;;;5029681;28;20124;-54
2021/10/04 01:49:19;;;;;;;3.90;1.58;;;;;;;;;;5009353;28;20681;-54
2021/10/04 01:51:45;;;;;;;2.83;1.55;;;;;;;;;;5017046;28;20037;-55
2021/10/04 01:54:10;;;;;;;8.75;1.70;;;;;;;;;;5012645;28;20030;-54
2021/10/04 01:56:35;;;;;;;3.28;1.50;;;;;;;;;;5018353;28;20348;-55
2021/10/04 01:59:01;;;;;;;3.67;1.60;;;;;;;;;;5024436;28;20115;-54
2021/10/04 02:01:26;;;;;;;2.85;1.70;;;;;;;;;;5024797;28;20041;-54
2021/10/04 02:03:51;;;;;;;3.97;1.60;;;;;;;;;;5012738;28;20694;-53
2021/10/04 02:06:17;;;;;;;2.35;1.40;;;;;;;;;;5014269;28;20537;-53
2021/10/04 02:08:44;;;;;;;4.85;1.70;;;;;;;;;;5015699;28;20018;-53
2021/10/04 02:11:09;;;;;;;3.63;1.60;;;;;;;;;;5012718;28;20092;-54
2021/10/04 02:13:34;;;;;;;3.78;1.70;;;;;;;;;;5012513;28;20029;-54
2021/10/04 02:15:59;;;;;;;2.00;1.48;;;;;;;;;;5013468;28;20042;-54
2021/10/04 02:18:25;;;;;;;2.17;1.40;;;;;;;;;;5022407;28;20029;-54
2021/10/04 02:20:50;;;;;;;3.80;2.15;;;;;;;;;;5010150;28;20049;-55
2021/10/04 02:23:15;;;;;;;2.15;1.50;;;;;;;;;;5010343;28;20044;-54
2021/10/04 02:25:43;;;;;;;3.10;1.50;;;;;;;;;;5009980;28;20123;-54
2021/10/04 02:28:09;;;;;;;4.53;1.90;;;;;;;;;;5019188;28;20040;-54
2021/10/04 02:30:34;;;;;;;4.10;1.80;;;;;;;;;;5017826;28;20516;-54
2021/10/04 02:32:59;;;;;;;3.10;1.70;;;;;;;;;;5020135;28;20060;-53
2021/10/04 02:35:24;;;;;;;3.20;1.60;;;;;;;;;;5016031;28;20041;-53
2021/10/04 02:37:51;;;;;;;2.97;1.77;;;;;;;;;;5012470;28;20030;-54
2021/10/04 02:40:16;;;;;;;4.15;1.80;;;;;;;;;;5020489;28;20014;-54
2021/10/04 02:42:41;;;;;;;4.80;1.77;;;;;;;;;;5011652;28;20024;-54
2021/10/04 02:45:07;;;;;;;2.10;1.70;;;;;;;;;;5015819;28;20025;-53
2021/10/04 02:47:32;;;;;;;2.20;1.80;;;;;;;;;;5018295;28;20064;-54
2021/10/04 02:49:57;;;;;;;4.63;2.55;;;;;;;;;;5015789;28;20035;-54
2021/10/04 02:52:23;;;;;;;5.80;2.10;;;;;;;;;;5016151;28;20037;-54
2021/10/04 02:54:48;;;;;;;3.53;1.90;;;;;;;;;;5013787;28;20034;-54
2021/10/04 02:57:13;;;;;;;3.90;2.10;;;;;;;;;;5007539;28;20040;-54
2021/10/04 02:59:38;;;;;;;4.22;1.90;;;;;;;;;;5023394;28;20029;-55
2021/10/04 03:02:04;;;;;;;4.70;2.10;;;;;;;;;;5013036;28;20078;-54
2021/10/04 03:04:29;;;;;;;3.40;1.80;;;;;;;;;;5015987;28;20029;-54
2021/10/04 03:06:54;;;;;;;3.53;2.03;;;;;;;;;;5007442;28;20045;-53
2021/10/04 03:09:19;;;;;;;6.07;1.90;;;;;;;;;;5010916;28;20029;-54
2021/10/04 03:11:44;;;;;;;4.10;2.00;;;;;;;;;;5014861;28;20054;-55
2021/10/04 03:14:10;;;;;;;3.38;2.10;;;;;;;;;;5016559;28;20061;-55
2021/10/04 03:16:35;;;;;;;3.50;2.00;;;;;;;;;;5013220;28;20061;-54
2021/10/04 03:19:00;;;;;;;3.45;2.00;;;;;;;;;;5038706;28;20423;-54
2021/10/04 03:21:25;;;;;;;3.45;2.03;;;;;;;;;;5007366;28;20041;-55
2021/10/04 03:23:51;;;;;;;4.45;2.10;;;;;;;;;;5011674;28;20018;-55
2021/10/04 03:26:16;;;;;;;4.45;1.90;;;;;;;;;;5017280;28;20033;-54
2021/10/04 03:28:41;;;;;;;5.32;1.92;;;;;;;;;;5011880;28;20017;-53
2021/10/04 03:31:06;;;;;;;3.47;2.10;;;;;;;;;;5022954;28;20091;-54
2021/10/04 03:33:31;;;;;;;3.00;1.90;;;;;;;;;;5017465;28;20088;-52
2021/10/04 03:35:57;;;;;;;5.75;2.20;;;;;;;;;;5010281;28;20176;-54
2021/10/04 03:38:22;;;;;;;3.00;2.38;;;;;;;;;;5007385;28;20026;-52
2021/10/04 03:40:47;;;;;;;5.15;2.28;;;;;;;;;;5013914;28;20430;-54
2021/10/04 03:43:12;;;;;;;2.85;2.08;;;;;;;;;;5017130;28;20450;-53
2021/10/04 03:45:38;;;;;;;3.55;2.22;;;;;;;;;;5010897;28;20036;-52
2021/10/04 03:48:03;;;;;;;4.47;2.28;;;;;;;;;;5007501;28;20121;-53
2021/10/04 03:50:28;;;;;;;4.68;2.60;;;;;;;;;;5017702;28;20594;-55
2021/10/04 03:52:53;;;;;;;8.77;2.60;;;;;;;;;;5015912;28;20036;-55
2021/10/04 03:55:19;;;;;;;4.07;2.50;;;;;;;;;;5012524;28;20657;-54
2021/10/04 03:57:44;;;;;;;8.52;2.53;;;;;;;;;;5017953;28;20056;-54
2021/10/04 04:00:11;;;;;;;6.38;2.78;;;;;;;;;;5013719;28;20201;-55
2021/10/04 04:02:36;;;;;;;4.28;2.97;;;;;;;;;;5012204;28;20037;-52
2021/10/04 04:05:01;;;;;;;5.90;2.88;;;;;;;;;;5006644;28;20022;-55
2021/10/04 04:07:27;;;;;;;4.80;2.90;;;;;;;;;;5020193;28;20029;-55
2021/10/04 04:09:52;;;;;;;5.75;3.03;;;;;;;;;;5009748;28;20026;-54
2021/10/04 04:12:17;;;;;;;4.53;3.03;;;;;;;;;;5017140;28;20447;-54
2021/10/04 04:14:42;;;;;;;3.72;2.63;;;;;;;;;;5014676;28;20033;-53
2021/10/04 04:17:08;;;;;;;6.82;3.42;;;;;;;;;;5010812;28;20111;-54
2021/10/04 04:19:33;;;;;;;4.00;2.75;;;;;;;;;;5006225;28;20033;-55
2021/10/04 04:21:58;;;;;;;4.40;3.20;;;;;;;;;;5013994;28;20129;-54
2021/10/04 04:24:23;;;;;;;6.20;3.45;;;;;;;;;;5012017;28;20108;-51
2021/10/04 04:26:50;;;;;;;6.18;3.20;;;;;;;;;;5031060;28;20052;-55
2021/10/04 04:29:16;;;;;;;6.18;3.70;;;;;;;;;;5015265;28;20034;-54
2021/10/04 04:31:41;;;;;;;5.28;3.10;;;;;;;;;;5005905;28;20041;-55
2021/10/04 04:34:06;;;;;;;5.32;3.03;;;;;;;;;;5017980;28;20067;-54
2021/10/04 04:36:31;;;;;;;6.18;3.22;;;;;;;;;;5018053;28;20057;-54
2021/10/04 04:38:57;;;;;;;6.82;3.15;;;;;;;;;;5012253;28;20080;-55
2021/10/04 04:41:23;;;;;;;7.75;3.40;;;;;;;;;;5011304;28;20123;-54
2021/10/04 04:43:48;;;;;;;5.10;3.25;;;;;;;;;;5018644;28;20029;-54
2021/10/04 04:46:13;;;;;;;10.38;3.65;;;;;;;;;;5021779;28;20040;-54
2021/10/04 04:48:38;;;;;;;7.85;3.10;;;;;;;;;;5005452;28;20037;-54
2021/10/04 04:51:04;;;;;;;5.30;3.58;;;;;;;;;;5044163;28;20481;-54
2021/10/04 04:53:29;;;;;;;7.55;3.70;;;;;;;;;;5038861;28;20507;-54
2021/10/04 04:55:55;;;;;;;5.18;3.72;;;;;;;;;;5009473;28;20120;-55
2021/10/04 04:58:21;;;;;;;5.78;4.38;;;;;;;;;;5014469;28;20060;-54
2021/10/04 05:00:46;;;;;;;5.35;4.00;;;;;;;;;;5026854;28;20037;-54
2021/10/04 05:03:11;;;;;;;6.03;3.83;;;;;;;;;;5015602;28;20091;-55
2021/10/04 05:05:36;;;;;;;6.35;4.00;;;;;;;;;;5011217;28;20083;-54
2021/10/04 05:08:02;;;;;;;6.97;3.90;;;;;;;;;;5007348;28;20100;-54
2021/10/04 05:10:27;;;;;;;5.47;4.05;;;;;;;;;;5006078;28;20104;-55
2021/10/04 05:12:52;;;;;;;8.10;4.25;;;;;;;;;;5012141;28;20033;-53
2021/10/04 05:15:18;;;;;;;6.95;4.10;;;;;;;;;;5015649;28;20056;-54
2021/10/04 05:17:43;;;;;;;7.30;4.43;;;;;;;;;;5005832;28;20021;-51
2021/10/04 05:20:09;;;;;;;5.13;4.20;;;;;;;;;;5005778;28;20046;-54
2021/10/04 05:22:35;;;;;;;7.85;4.20;;;;;;;;;;5009785;28;20026;-54
2021/10/04 05:25:01;;;;;;;6.05;4.57;;;;;;;;;;5013362;28;20045;-52
2021/10/04 05:27:26;;;;;;;6.93;4.05;;;;;;;;;;5016926;28;20539;-56
2021/10/04 05:29:51;;;;;;;7.85;4.40;;;;;;;;;;5017891;28;20037;-54
2021/10/04 05:32:16;;;;;;;7.22;4.20;;;;;;;;;;5013110;28;20045;-53
2021/10/04 05:34:41;;;;;;;6.32;4.38;;;;;;;;;;5012518;28;20675;-55
2021/10/04 05:37:07;;;;;;;5.88;4.10;;;;;;;;;;5011587;28;20028;-53
2021/10/04 05:39:32;;;;;;;9.75;4.68;;;;;;;;;;5013930;28;20398;-54
2021/10/04 05:41:57;;;;;;;6.10;4.43;;;;;;;;;;5015569;28;20044;-54
2021/10/04 05:44:22;;;;;;;6.93;4.28;;;;;;;;;;5017138;28;20092;-54
2021/10/04 05:46:48;;;;;;;5.95;4.40;;;;;;;;;;5010061;28;20033;-55
2021/10/04 05:49:13;;;;;;;6.65;4.15;;;;;;;;;;5014398;28;20025;-54
2021/10/04 05:51:38;;;;;;;6.47;4.05;;;;;;;;;;5019372;28;20051;-51
2021/10/04 05:54:03;;;;;;;7.75;4.32;;;;;;;;;;5013433;28;20025;-52
2021/10/04 05:56:29;;;;;;;10.23;4.55;;;;;;;;;;5030880;28;20045;-53
2021/10/04 05:58:54;;;;;;;9.45;4.35;;;;;;;;;;5027511;28;20103;-56
2021/10/04 06:01:19;;;;;;;7.15;4.18;;;;;;;;;;5009184;28;20038;-55
2021/10/04 06:03:44;;;;;;;6.82;3.95;;;;;;;;;;5014154;28;20037;-54
2021/10/04 06:06:10;;;;;;;5.32;4.15;;;;;;;;;;5015604;28;20137;-54
2021/10/04 06:08:35;;;;;;;6.18;3.92;;;;;;;;;;5015706;28;20083;-54
2021/10/04 06:11:00;;;;;;;6.53;3.63;;;;;;;;;;5017110;28;20050;-54
2021/10/04 06:13:25;;;;;;;7.18;3.53;;;;;;;;;;5013284;28;20065;-55
2021/10/04 06:15:51;;;;;;;7.95;3.45;;;;;;;;;;5009636;28;20077;-53
2021/10/04 06:18:16;;;;;;;5.32;3.40;;;;;;;;;;5014106;28;20017;-52
2021/10/04 06:20:41;;;;;;;5.53;3.38;;;;;;;;;;5016147;28;20064;-55
2021/10/04 06:23:07;;;;;;;5.55;3.05;;;;;;;;;;5021675;28;20101;-54
2021/10/04 06:25:32;;;;;;;4.47;3.13;;;;;;;;;;5020949;28;20904;-53
2021/10/04 06:27:58;;;;;;;5.35;3.03;;;;;;;;;;5014381;28;20033;-53
2021/10/04 06:30:24;;;;;;;6.88;3.70;;;;;;;;;;5020284;28;20119;-54
2021/10/04 06:32:49;;;;;;;6.63;3.08;;;;;;;;;;5015551;28;20318;-53
2021/10/04 06:35:14;;;;;;;4.18;2.90;;;;;;;;;;5017738;28;20127;-53
2021/10/04 06:37:40;;;;;;;8.35;3.20;;;;;;;;;;5020088;28;20029;-54
2021/10/04 06:40:05;;;;;;;6.32;3.13;;;;;;;;;;5020992;28;20077;-54
2021/10/04 06:42:31;;;;;;;5.47;2.88;;;;;;;;;;5020026;28;20377;-55
2021/10/04 06:44:56;;;;;;;7.82;3.20;;;;;;;;;;5010636;28;20053;-53
2021/10/04 06:47:22;;;;;;;7.95;3.60;;;;;;;;;;5023742;28;20113;-53
2021/10/04 06:49:47;;;;;;;3.70;2.63;;;;;;;;;;5017858;28;20031;-55
2021/10/04 06:52:12;;;;;;;5.55;2.70;;;;;;;;;;5023940;28;20468;-53
2021/10/04 06:54:37;;;;;;;3.90;2.63;;;;;;;;;;5014061;28;20531;-54
2021/10/04 06:57:03;;;;;;;5.05;2.60;;;;;;;;;;5028211;28;20038;-55
2021/10/04 06:59:28;;;;;;;5.50;2.70;;;;;;;;;;5007124;28;20292;-53
2021/10/04 07:01:53;;;;;;;6.63;2.63;;;;;;;;;;5018642;28;20037;-53
2021/10/04 07:04:18;;;;;;;3.60;2.50;;;;;;;;;;5007200;28;20022;-54
2021/10/04 07:06:44;;;;;;;7.63;2.70;;;;;;;;;;5013284;28;20447;-54
2021/10/04 07:09:09;;;;;;;4.72;2.13;;;;;;;;;;5014962;28;20414;-53
2021/10/04 07:11:35;;;;;;;3.95;2.20;;;;;;;;;;5010053;28;20135;-52
2021/10/04 07:14:00;;;;;;;5.07;2.40;;;;;;;;;;5007675;28;20519;-52
2021/10/04 07:16:25;;;;;;;4.72;2.35;;;;;;;;;;5027965;28;20042;-54
2021/10/04 07:18:50;;;;;;;4.53;2.45;;;;;;;;;;5007867;28;20481;-53
2021/10/04 07:21:16;;;;;;;5.35;2.30;;;;;;;;;;5018448;28;20029;-54
2021/10/04 07:23:43;;;;;;;3.47;2.08;;;;;;;;;;5017641;28;20039;-54
2021/10/04 07:26:08;;;;;;;6.72;2.20;;;;;;;;;;5007520;28;20108;-54
2021/10/04 07:28:34;;;;;;;4.22;2.00;;;;;;;;;;5013956;28;20037;-53
2021/10/04 07:30:59;;;;;;;2.72;1.90;;;;;;;;;;5009674;28;20113;-54
2021/10/04 07:33:24;;;;;;;2.83;1.95;;;;;;;;;;5012532;28;20083;-52
2021/10/04 07:35:51;;;;;;;6.90;2.10;;;;;;;;;;5010413;28;20503;-53
2021/10/04 07:38:16;;;;;;;2.15;1.85;;;;;;;;;;5016811;28;20037;-54
2021/10/04 07:40:41;;;;;;;8.63;2.25;;;;;;;;;;5017238;28;20030;-57
2021/10/04 07:43:06;;;;;;;5.10;2.20;;;;;;;;;;5008882;28;20056;-53
2021/10/04 07:45:35;;;;;;;4.53;2.00;;;;;;;;;;5019264;28;20034;-54
2021/10/04 07:48:00;;;;;;;3.50;2.10;;;;;;;;;;5013359;28;20461;-54
2021/10/04 07:50:26;;;;;;;6.97;2.22;;;;;;;;;;5019513;28;20097;-54
2021/10/04 07:52:51;;;;;;;4.00;2.20;;;;;;;;;;5013619;28;20037;-53
2021/10/04 07:55:16;;;;;;;3.28;2.00;;;;;;;;;;5011456;28;20561;-54
2021/10/04 07:57:44;;;;;;;2.50;1.77;;;;;;;;;;5012494;28;20546;-54
2021/10/04 08:00:09;;;;;;;3.88;2.10;;;;;;;;;;5006209;28;20164;-54
2021/10/04 08:02:36;;;;;;;6.50;2.10;;;;;;;;;;5021872;28;20116;-54
2021/10/04 08:05:01;;;;;;;6.05;2.13;;;;;;;;;;5018189;28;20052;-54
2021/10/04 08:07:26;;;;;;;2.88;1.63;;;;;;;;;;5009275;28;20025;-54
2021/10/04 08:09:52;;;;;;;2.90;1.98;;;;;;;;;;5009586;28;20018;-54
2021/10/04 08:12:17;;;;;;;8.88;2.00;;;;;;;;;;5007008;28;20061;-54
2021/10/04 08:14:42;;;;;;;1.92;1.70;;;;;;;;;;5012428;28;20091;-54
2021/10/04 08:17:07;;;;;;;3.45;1.65;;;;;;;;;;5013795;28;20504;-53
2021/10/04 08:19:32;;;;;;;2.53;1.60;;;;;;;;;;5009070;28;20029;-53
2021/10/04 08:21:58;;;;;;;2.92;1.60;;;;;;;;;;5009274;28;20038;-54
2021/10/04 08:24:23;;;;;;;3.42;1.70;;;;;;;;;;5012622;28;20108;-54
2021/10/04 08:26:48;;;;;;;3.45;1.95;;;;;;;;;;5019739;28;20030;-54
2021/10/04 08:29:16;;;;;;;5.82;1.60;;;;;;;;;;5015256;28;20033;-53
2021/10/04 08:31:41;;;;;;;6.80;1.70;;;;;;;;;;5011373;28;20029;-54
2021/10/04 08:34:06;;;;;;;5.28;1.83;;;;;;;;;;5011764;28;20045;-53
2021/10/04 08:36:32;;;;;;;3.80;1.75;;;;;;;;;;5011677;28;20038;-54
2021/10/04 08:38:58;;;;;;;4.03;1.60;;;;;;;;;;5016702;28;20025;-54
2021/10/04 08:41:23;;;;;;;2.95;1.60;;;;;;;;;;5016619;28;20066;-53
2021/10/04 08:43:49;;;;;;;3.10;1.50;;;;;;;;;;5017361;28;20044;-54
2021/10/04 08:46:14;;;;;;;3.03;1.63;;;;;;;;;;5017474;28;20395;-55
2021/10/04 08:48:40;;;;;;;2.75;1.70;;;;;;;;;;5013010;28;20029;-54
2021/10/04 08:51:05;;;;;;;2.55;1.60;;;;;;;;;;5008597;28;20054;-54
2021/10/04 08:53:30;;;;;;;2.95;1.60;;;;;;;;;;5007618;28;20595;-56
2021/10/04 08:55:55;;;;;;;7.72;1.90;;;;;;;;;;5032147;28;20040;-54
2021/10/04 08:58:21;;;;;;;3.83;1.70;;;;;;;;;;5018368;28;20014;-54
2021/10/04 09:00:46;;;;;;;3.63;1.50;;;;;;;;;;5020684;28;20033;-54
2021/10/04 09:03:12;;;;;;;3.25;1.80;;;;;;;;;;5010875;28;20038;-54
2021/10/04 09:05:43;;;;;;;6.35;1.85;;;;;;;;;;5015095;28;20440;-54
2021/10/04 09:08:15;;;;;;;3.58;1.60;;;;;;;;;;5014541;28;20794;-54
2021/10/04 09:10:41;;;;;;;2.55;1.70;;;;;;;;;;5011015;28;20064;-55
2021/10/04 09:13:10;;;;;;;3.58;1.60;;;;;;;;;;5030905;28;20022;-54
2021/10/04 09:15:45;;;;;;;3.45;1.70;;;;;;;;;;5009815;28;20046;-55
2021/10/04 09:18:27;;;;;;;7.07;1.60;;;;;;;;;;5019897;28;20032;-54
2021/10/04 09:20:55;;;;;;;4.38;1.80;;;;;;;;;;5020359;28;20038;-53
2021/10/04 09:23:27;;;;;;;3.13;1.50;;;;;;;;;;5014172;28;20076;-55
2021/10/04 09:25:52;;;;;;;3.97;1.63;;;;;;;;;;5015642;28;20034;-55
2021/10/04 09:28:25;;;;;;;2.40;1.70;;;;;;;;;;5013015;28;20416;-54
2021/10/04 09:30:54;;;;;;;3.28;1.67;;;;;;;;;;5008615;28;20543;-54
2021/10/04 09:33:19;;;;;;;3.13;1.70;;;;;;;;;;5019007;28;21004;-55
2021/10/04 09:35:44;;;;;;;3.28;1.70;;;;;;;;;;5032230;28;20053;-54
2021/10/04 09:38:14;;;;;;;1.65;1.48;;;;;;;;;;5024856;28;20026;-55
2021/10/04 09:40:46;;;;;;;4.68;1.60;;;;;;;;;;5017507;28;20111;-53
2021/10/04 09:43:20;;;;;;;2.28;1.60;;;;;;;;;;5014467;28;20017;-54
2021/10/04 09:45:55;;;;;;;3.95;1.80;;;;;;;;;;5015283;28;20073;-54
2021/10/04 09:48:21;;;;;;;3.55;1.80;;;;;;;;;;5024127;28;20033;-53
2021/10/04 09:50:46;;;;;;;5.35;1.45;;;;;;;;;;5020730;28;20049;-54
2021/10/04 09:53:12;;;;;;;3.63;1.70;;;;;;;;;;5022671;28;20033;-54
2021/10/04 09:55:41;;;;;;;2.60;1.80;;;;;;;;;;5010988;28;20129;-54
2021/10/04 09:58:16;;;;;;;4.57;1.80;;;;;;;;;;5033969;28;20506;-54
2021/10/04 10:00:57;;;;;;;4.13;1.88;;;;;;;;;;5027513;28;20559;-54
2021/10/04 10:03:24;;;;;;;3.05;1.88;;;;;;;;;;5016611;28;20531;-53
2021/10/04 10:05:54;;;;;;;5.65;1.80;;;;;;;;;;5018187;28;20045;-54
2021/10/04 10:08:21;;;;;;;5.75;1.75;;;;;;;;;;5008984;28;20100;-55
2021/10/04 10:10:46;;;;;;;4.07;1.70;;;;;;;;;;5008640;28;20042;-54
2021/10/04 10:13:12;;;;;;;2.05;1.60;;;;;;;;;;5013014;28;20079;-55
2021/10/04 10:15:38;;;;;;;5.20;1.80;;;;;;;;;;5013521;28;20318;-55
2021/10/04 10:18:06;;;;;;;4.85;1.85;;;;;;;;;;5016449;28;20036;-53
2021/10/04 10:20:31;;;;;;;3.22;1.80;;;;;;;;;;5022771;28;20033;-53
2021/10/04 10:22:56;;;;;;;6.93;2.15;;;;;;;;;;5022021;28;20041;-54
2021/10/04 10:25:25;;;;;;;4.50;2.17;;;;;;;;;;5018235;28;20029;-53
2021/10/04 10:27:50;;;;;;;2.80;1.60;;;;;;;;;;5017537;28;20159;-54
2021/10/04 10:30:19;;;;;;;3.88;1.90;;;;;;;;;;5029920;28;20569;-54
2021/10/04 10:32:44;;;;;;;4.30;2.20;;;;;;;;;;5020060;28;20192;-55
2021/10/04 10:35:10;;;;;;;8.00;2.50;;;;;;;;;;5008711;28;20204;-55
2021/10/04 10:37:50;;;;;;;4.53;2.25;;;;;;;;;;5014673;28;20033;-54
2021/10/04 10:40:21;;;;;;;5.07;2.35;;;;;;;;;;5017210;28;20373;-53
2021/10/04 10:43:06;;;;;;;5.15;2.28;;;;;;;;;;5008358;28;20026;-55
2021/10/04 10:45:37;;;;;;;5.93;2.10;;;;;;;;;;5011051;28;20542;-54
2021/10/04 10:48:03;;;;;;;4.28;2.40;;;;;;;;;;5013542;28;20032;-56
2021/10/04 10:50:28;;;;;;;9.30;2.45;;;;;;;;;;5017980;28;20041;-55
2021/10/04 10:52:56;;;;;;;9.50;2.70;;;;;;;;;;5013191;28;20074;-54
2021/10/04 10:55:22;;;;;;;4.40;2.40;;;;;;;;;;4999778;28;20047;-56
2021/10/04 10:57:50;;;;;;;4.88;2.42;;;;;;;;;;5043091;28;20104;-55
2021/10/04 11:00:15;;;;;;;3.40;2.33;;;;;;;;;;5010766;28;20018;-55
2021/10/04 11:02:47;;;;;;;7.45;2.83;;;;;;;;;;5038507;28;20220;-55
2021/10/04 11:05:31;;;;;;;4.20;2.40;;;;;;;;;;5012444;28;20086;-55
2021/10/04 11:07:56;;;;;;;4.68;2.58;;;;;;;;;;5011351;28;20026;-54
2021/10/04 11:10:21;;;;;;;4.68;2.50;;;;;;;;;;5007782;28;20037;-54
2021/10/04 11:13:05;;;;;;;6.10;2.45;;;;;;;;;;5028615;28;20036;-55
2021/10/04 11:15:31;;;;;;;4.95;2.40;;;;;;;;;;5008278;28;20096;-55
2021/10/04 11:17:56;;;;;;;4.80;2.40;;;;;;;;;;5013551;28;20033;-55
2021/10/04 11:20:21;;;;;;;3.88;2.30;;;;;;;;;;5018269;28;20038;-56
2021/10/04 11:22:46;;;;;;;3.95;2.17;;;;;;;;;;5014090;28;20036;-55
2021/10/04 11:25:11;;;;;;;4.95;2.00;;;;;;;;;;5014295;28;20018;-55
2021/10/04 11:27:47;;;;;;;5.15;2.50;;;;;;;;;;5011236;28;20030;-54
2021/10/04 11:30:12;;;;;;;4.18;2.15;;;;;;;;;;5022705;28;20541;-54
2021/10/04 11:32:37;;;;;;;3.60;2.00;;;;;;;;;;5021182;28;20037;-54
2021/10/04 11:35:15;;;;;;;4.25;2.05;;;;;;;;;;5020843;28;20499;-55
2021/10/04 11:37:40;;;;;;;2.85;1.80;;;;;;;;;;5019832;28;20219;-56
2021/10/04 11:40:06;;;;;;;3.08;1.90;;;;;;;;;;5015979;28;20083;-54
2021/10/04 11:42:32;;;;;;;3.30;2.00;;;;;;;;;;5012029;28;20025;-53
2021/10/04 11:45:00;;;;;;;2.97;1.75;;;;;;;;;;5012262;28;20029;-54
2021/10/04 11:47:25;;;;;;;4.20;1.90;;;;;;;;;;5010838;28;20060;-55
2021/10/04 11:49:53;;;;;;;2.55;1.75;;;;;;;;;;5014776;28;20476;-54
2021/10/04 11:52:26;;;;;;;3.72;1.90;;;;;;;;;;5027249;28;20044;-54
2021/10/04 11:54:52;;;;;;;4.60;1.85;;;;;;;;;;5009374;28;20041;-54
2021/10/04 11:57:20;;;;;;;3.75;1.63;;;;;;;;;;5019510;28;20034;-54
2021/10/04 11:59:46;;;;;;;3.63;1.80;;;;;;;;;;5019767;28;20091;-53
2021/10/04 12:02:18;;;;;;;3.70;2.00;;;;;;;;;;5019458;28;20033;-56
2021/10/04 12:04:43;;;;;;;4.10;2.30;;;;;;;;;;5018238;28;20049;-55
2021/10/04 12:07:08;;;;;;;3.58;1.98;;;;;;;;;;5022334;28;20115;-56
2021/10/04 12:09:33;;;;;;;5.10;1.85;;;;;;;;;;5033698;28;20096;-53
2021/10/04 12:11:59;;;;;;;3.63;1.90;;;;;;;;;;5014170;28;20061;-56
2021/10/04 12:14:25;;;;;;;5.30;1.98;;;;;;;;;;5016444;28;20033;-56
2021/10/04 12:16:52;;;;;;;2.92;1.90;;;;;;;;;;5011190;28;20057;-55
2021/10/04 12:19:17;;;;;;;3.00;1.90;;;;;;;;;;5010531;28;20033;-53
2021/10/04 12:21:43;;;;;;;4.32;2.08;;;;;;;;;;5008120;28;20042;-56
2021/10/04 12:24:09;;;;;;;3.50;1.90;;;;;;;;;;5018660;28;20131;-55
2021/10/04 12:26:53;;;;;;;4.07;2.08;;;;;;;;;;5021443;28;20570;-52
2021/10/04 12:29:37;;;;;;;4.03;2.00;;;;;;;;;;5018232;28;20025;-53
2021/10/04 12:32:19;;;;;;;3.65;2.05;;;;;;;;;;5016824;28;20160;-55
2021/10/04 12:35:03;;;;;;;2.97;2.10;;;;;;;;;;5008912;28;20120;-53
2021/10/04 12:37:29;;;;;;;4.95;2.13;;;;;;;;;;5012587;28;20091;-56
2021/10/04 12:39:54;;;;;;;3.83;2.03;;;;;;;;;;5017897;28;20041;-57
2021/10/04 12:42:20;;;;;;;4.25;2.10;;;;;;;;;;5014544;28;20029;-55
2021/10/04 12:44:45;;;;;;;4.20;2.20;;;;;;;;;;5018197;28;20037;-53
2021/10/04 12:47:11;;;;;;;3.20;1.85;;;;;;;;;;5005555;28;20036;-55
2021/10/04 12:49:37;;;;;;;2.65;1.98;;;;;;;;;;5007886;28;20029;-56
2021/10/04 12:52:03;;;;;;;4.50;2.05;;;;;;;;;;5011866;28;20049;-54
2021/10/04 12:54:28;;;;;;;3.63;2.13;;;;;;;;;;5015155;28;20125;-55
2021/10/04 12:56:54;;;;;;;3.90;2.13;;;;;;;;;;5012857;28;20037;-56
2021/10/04 12:59:20;;;;;;;5.05;2.15;;;;;;;;;;5018156;28;20029;-55
2021/10/04 13:01:49;;;;;;;3.75;2.15;;;;;;;;;;5018080;28;20045;-54
2021/10/04 13:04:14;;;;;;;4.50;2.28;;;;;;;;;;5010830;28;20100;-55
2021/10/04 13:06:40;;;;;;;5.18;2.70;;;;;;;;;;5010765;28;20179;-54
2021/10/04 13:09:06;;;;;;;7.45;2.13;;;;;;;;;;5014225;28;20048;-54
2021/10/04 13:11:31;;;;;;;9.05;2.50;;;;;;;;;;5019476;28;20041;-55
2021/10/04 13:13:56;;;;;;;4.72;2.53;;;;;;;;;;5014486;28;20029;-55
2021/10/04 13:16:22;;;;;;;6.00;2.38;;;;;;;;;;5008540;28;20037;-54
2021/10/04 13:18:47;;;;;;;4.85;2.35;;;;;;;;;;5013768;28;20026;-54
2021/10/04 13:21:12;;;;;;;4.32;1.95;;;;;;;;;;5009224;28;20402;-54
2021/10/04 13:23:38;;;;;;;7.35;2.35;;;;;;;;;;5021302;28;20029;-55
2021/10/04 13:26:04;;;;;;;5.93;2.25;;;;;;;;;;5009919;28;20730;-54
2021/10/04 13:28:29;;;;;;;4.32;2.30;;;;;;;;;;5011914;28;20029;-55
2021/10/04 13:30:54;;;;;;;3.47;2.08;;;;;;;;;;5011886;28;20191;-54
2021/10/04 13:33:19;;;;;;;6.22;2.95;;;;;;;;;;5014222;28;20021;-54
2021/10/04 13:35:45;;;;;;;4.25;2.10;;;;;;;;;;5009848;28;20050;-54
2021/10/04 13:38:10;;;;;;;4.97;2.42;;;;;;;;;;5005659;28;20600;-55
2021/10/04 13:40:37;;;;;;;4.15;2.10;;;;;;;;;;5025805;28;20046;-55
2021/10/04 13:43:02;;;;;;;5.70;2.33;;;;;;;;;;5013341;28;20033;-54
2021/10/04 13:45:27;;;;;;;5.45;2.30;;;;;;;;;;5011945;28;20037;-55
2021/10/04 13:47:52;;;;;;;5.07;2.50;;;;;;;;;;5008400;28;20034;-55
2021/10/04 13:50:25;;;;;;;4.10;2.20;;;;;;;;;;5013149;28;20663;-55
2021/10/04 13:52:51;;;;;;;7.80;2.25;;;;;;;;;;5013952;28;20064;-55
2021/10/04 13:55:16;;;;;;;8.43;2.47;;;;;;;;;;5031417;28;20076;-55
2021/10/04 13:57:43;;;;;;;5.22;1.90;;;;;;;;;;5008920;28;20033;-55
2021/10/04 14:00:09;;;;;;;4.88;2.58;;;;;;;;;;5007794;28;20029;-54
2021/10/04 14:02:34;;;;;;;6.13;2.40;;;;;;;;;;5021714;28;20022;-55
2021/10/04 14:05:00;;;;;;;9.68;2.75;;;;;;;;;;5019554;28;20044;-55
2021/10/04 14:07:25;;;;;;;3.95;1.83;;;;;;;;;;5015660;28;20062;-56
2021/10/04 14:09:51;;;;;;;6.85;2.00;;;;;;;;;;5019111;28;20555;-55
2021/10/04 14:12:16;;;;;;;3.92;1.70;;;;;;;;;;5015730;28;20077;-54
2021/10/04 14:14:41;;;;;;;6.93;1.90;;;;;;;;;;5024393;28;20033;-56
2021/10/04 14:17:07;;;;;;;4.07;1.90;;;;;;;;;;5007115;28;20630;-53
2021/10/04 14:19:32;;;;;;;7.43;2.05;;;;;;;;;;5003261;28;20501;-54
2021/10/04 14:21:58;;;;;;;7.38;1.95;;;;;;;;;;5031290;28;20030;-55
2021/10/04 14:24:23;;;;;;;4.93;2.28;;;;;;;;;;5022276;28;20534;-55
2021/10/04 14:26:52;;;;;;;4.93;2.47;;;;;;;;;;5009633;28;20419;-55
2021/10/04 14:29:20;;;;;;;4.70;2.17;;;;;;;;;;5013342;28;20022;-54
2021/10/04 14:31:45;;;;;;;3.55;2.05;;;;;;;;;;5013022;28;20045;-54
2021/10/04 14:34:13;;;;;;;2.67;1.88;;;;;;;;;;5021974;28;20036;-55
2021/10/04 14:36:39;;;;;;;3.03;1.60;;;;;;;;;;5022811;28;20080;-55